Accueil
METAR-TAF:

METAR-TAF

Aéroports :

Penn Valley Airport

Selinsgrove, Pennsylvanie, États-Unis

latitude: 40-49-09N, longitude: 076-51-58W, altitude: 137 m

Observation

Le bulletin a été fait il y a 51 minutes, à 18:53 UTC
Vent 3 kt de direction variable
Température 23°C
Humidité 69%
Pression 1011 hPa
Visibilité: 16.1 km
Ciel couvert à une hauteur de 2300 ft

METAR: KSEG 121853Z AUTO VRB03KT 10SM OVC023 23/17 A2986 RMK AO2 SLP110 T02280172

Heure: 15:44 (19:44 UTC)


TAF: absent

Observations et prévisions météorologiques de plus de 4000 aéroports (messages METAR et TAF).

Les stations disponibles sont représentées par des disques jaunes et rouges sur la carte.

Passer la souris dessus pour voir le nom de la station.

Cliquer dessus pour voir les observations et prévisions météorologiques.

Pour changer de carte: cliquez sur les boutons verts avec une croix noire pour zoomer, sur le bouton vert avec un tiret pour effectuer un zoom arrière, ou sur les flèches vertes pour les cartes adjacentes.


METAR-TAF: